Weather observations for the past three days for
Manning / Cooper Regional
Metric (Imperial)
Date Time (edt) Wind (kph) Vis. (km) Weather Sky Cond. Temperature (ºC) Relative Humidity Wind Chill (°C) Heat Index (°C) Pressure Precipitation (cm)
Air Dwpt 6 hour altimeter (cm) sea level (mb) 1 hr 3 hr 6 hr
Max. Min.
08 18:55 Calm 16.09 Fair CLR 21 7 40% 76.12 0.0
08 18:15 SW 6 16.09 Fair CLR 21 7 40% 76.12 0.0
08 17:55 SW 9 16.09 Fair CLR 21 7 40% 76.12 0.0
08 17:35 S 7 16.09 Fair CLR 22 8 41% 76.12 0.0
08 17:15 SW 7 16.09 Fair CLR 22 8 41% 76.12 0.0
08 16:55 SW 11 16.09 Fair CLR 22 7 38% 76.12 0.0
08 16:35 S 9 16.09 Fair CLR 23 7 36% 76.12 0.0
08 16:15 Calm 16.09 Fair CLR 22 6 36% 76.1 0.0
08 15:55 W 6 16.09 Fair CLR 23 6 33% 76.12 0.0
08 15:35 Calm 16.09 Fair CLR 22 6 36% 76.17 0.0
08 15:15 Calm 16.09 Fair CLR 22 6 36% 76.2 0.0
08 14:55 SE 6 16.09 Fair CLR 22 6 36% 76.2 0.0
08 14:35 SW 7 16.09 Fair CLR 21 6 38% 76.25 0.0
08 14:15 NE 9 16.09 Fair CLR 21 6 38% 76.23 0.0
08 13:55 N 6 G 30 16.09 Fair CLR 21 6 38% 76.25 0.0
08 13:15 NE 11 16.09 Fair CLR 21 6 38% 76.3 0.0
08 12:55 NE 15 16.09 Fair CLR 21 6 38% 76.33 0.0
08 12:35 E 9 16.09 Fair CLR 20 6 40% 76.33 0.0
08 12:15 E 11 16.09 Fair CLR 21 6 38% 76.33 0.0
08 11:55 NE 11 16.09 Fair CLR 20 6 40% 76.35 0.0
08 11:35 NE 17 16.09 Fair CLR 20 6 40% 76.38 0.0
08 11:15 E 7 16.09 Fair CLR 20 7 43% 76.38 0.0
08 10:55 NE 11 16.09 Fair CLR 19 7 46% 76.4 0.0
08 10:35 NE 13 16.09 Fair CLR 18 7 49% 76.38 0.0
08 10:15 E 9 16.09 Fair CLR 18 8 52% 76.35 0.0
08 09:55 NE 13 16.09 Fair CLR 18 10 60% 76.35 0.0
08 09:15 NE 13 16.09 Fair CLR 16 10 68% 76.33 0.0
08 08:35 NE 11 16.09 Fair CLR 14 12 88% 76.3 0.0
08 08:15 NE 7 16.09 Fair CLR 13 12 94% 76.3 0.0
08 07:55 NE 7 16.09 Fair CLR 12 12 100% 76.28 0.0
08 07:35 NE 6 16.09 Partly Cloudy SCT004 12 12 100% 76.25 0.0
08 07:15 NE 6 16.09 Mostly Cloudy BKN004 12 12 100% 76.23 0.0
08 06:55 NE 6 16.09 Partly Cloudy SCT004 12 12 100% 76.2 0.0
08 06:35 NE 6 16.09 Fair CLR 12 12 100% 76.17 0.0
08 06:15 NE 6 16.09 Partly Cloudy SCT050 12 11 94% 76.17 0.0
08 05:55 NE 6 16.09 Mostly Cloudy BKN048 12 12 100% 76.15 0.0
08 05:35 N 7 16.09 Overcast OVC046 12 12 100% 76.12 0.0
08 05:15 NE 6 16.09 Mostly Cloudy BKN046 12 12 100% 76.12 0.0
08 04:55 Calm 16.09 Fair CLR 12 11 94% 76.12 0.0
08 04:35 N 6 16.09 Fair CLR 12 12 100% 76.1 0.0
08 04:15 Calm 16.09 Fair CLR 12 12 100% 76.1 0.0
08 03:55 Calm 16.09 Fair CLR 12 12 100% 76.07 0.0
08 03:35 Calm 16.09 Fair CLR 13 12 94% 76.07 0.0
08 03:15 NE 6 16.09 Fair CLR 13 12 94% 76.05 0.0
08 02:55 NE 7 16.09 Fair CLR 13 12 94% 76.07 0.0
08 02:35 Calm 16.09 Fair CLR 14 12 88% 76.05 0.0
08 02:15 NE 6 16.09 Fair CLR 15 12 82% 76.05 0.0
08 01:55 NE 6 16.09 Fair CLR 15 12 82% 76.05 0.0
08 01:35 NE 6 16.09 Partly Cloudy SCT038 16 12 77% 76.05 0.0
08 01:15 NE 11 16.09 Overcast OVC038 16 13 83% 76.07 0.0
08 00:55 NE 13 16.09 Overcast OVC033 17 13 77% 76.02 0.0
08 00:35 NE 11 16.09 Partly Cloudy SCT033 17 13 77% 76.02 0.0
08 00:15 NE 17 16.09 Partly Cloudy SCT026 SCT032 SCT046 17 15 88% 76 0.0
07 23:55 NE 20 G 30 16.09 Mostly Cloudy SCT016 SCT026 BKN034 19 16 83% 75.97 0.0
07 23:35 Calm 16.09 Partly Cloudy SCT049 20 18 88% 75.92 0.0
07 23:15 NW 6 16.09 Fair CLR 20 18 88% 75.9 0.0
07 22:55 W 6 16.09 Fair CLR 21 18 83% 75.87 0.0
07 22:35 W 7 16.09 Fair CLR 21 18 83% 75.87 0.0
07 22:15 W 7 16.09 Fair CLR 21 18 83% 75.84 0.0
07 21:35 W 6 16.09 Fair CLR 21 18 83% 75.79 0.0
07 21:15 W 6 16.09 Fair CLR 21 19 88% 75.77 0.0
07 20:55 SW 7 16.09 Fair CLR 22 19 83% 75.74 0.0
07 20:35 W 7 16.09 Partly Cloudy SCT034 22 19 83% 75.72 0.0
07 20:15 W 9 16.09 Partly Cloudy SCT034 22 19 83% 75.69 0.0
07 19:55 W 9 0.00 NULL NULL 23 19 78% 75.69 0.0
07 19:35 W 11 16.09 Partly Cloudy SCT025 SCT030 23 19 78% 75.67 0.0
07 19:15 W 11 16.09 Partly Cloudy SCT023 24 19 74% 25 75.64 0.0
07 18:55 W 13 16.09 Partly Cloudy SCT021 25 19 69% 26 75.64 0.0
07 18:35 W 9 G 26 16.09 Partly Cloudy SCT021 24 19 74% 25 75.67 0.0
07 18:15 W 9 16.09 Mostly Cloudy SCT021 SCT060 BKN070 25 19 69% 26 75.64 0.0
07 17:55 W 13 16.09 Overcast SCT021 OVC060 24 19 74% 25 75.64 0.0
07 17:35 W 19 G 28 16.09 Overcast BKN021 BKN034 OVC060 24 19 74% 25 75.67 0.0
07 17:15 SW 15 G 30 16.09 Overcast BKN019 OVC026 23 20 83% 75.69 0.0
07 16:55 W 13 16.09 Overcast OVC019 23 20 83% 75.67 0.0
07 16:35 W 24 G 37 16.09 Mostly Cloudy BKN019 24 19 74% 25 75.67 0.0
07 16:15 SW 20 G 33 16.09 Fair CLR 25 19 69% 26 75.67 0.0
07 15:30 SW 11 16.09 Partly Cloudy SCT008 SCT049 SCT070 22 20 88% 75.62 0.0 0.03
07 15:15 SW 20 G 31 16.09 Mostly Cloudy SCT049 BKN070 BKN095 21 20 94% 75.62 0.0 0.03
07 14:55 S 11 11.27 Light Rain SCT012 SCT032 OVC049 20 20 100% 75.67 0.0 0.05
07 14:35 Calm 8.05 Thunderstorm Light Rain OVC015 20 19 94% 75.79 0.0
07 14:15 SW 7 11.27 Overcast OVC019 21 18 83% 75.77 0.0
07 13:55 W 6 16.09 Overcast SCT017 BKN025 OVC030 21 18 83% 75.77 0.0
07 13:15 S 6 11.27 Overcast SCT022 BKN041 OVC048 20 18 88% 75.77 0.0
07 12:55 W 7 16.09 Overcast BKN048 BKN065 OVC100 20 17 83% 75.79 0.0
07 12:35 W 15 16.09 Mostly Cloudy SCT031 SCT065 BKN110 20 17 83% 75.82 0.0
07 11:55 SW 9 16.09 Partly Cloudy SCT028 SCT050 20 17 83% 75.77 0.0 0.05
07 11:35 W 7 16.09 Light Rain SCT030 SCT036 BKN065 20 17 83% 75.79 0.0 0.05
07 11:15 W 11 16.09 Rain SCT034 BKN043 OVC080 20 17 83% 75.79 0.0
07 10:55 SW 6 11.27 Light Rain SCT033 SCT055 BKN080 20 17 83% 75.74 0.0
07 10:35 SW 11 16.09 Overcast BKN085 OVC110 21 17 78% 75.82 0.0
07 10:15 SW 13 16.09 Overcast SCT055 BKN075 OVC110 21 17 78% 75.84 0.0
07 09:55 SW 11 16.09 Mostly Cloudy SCT075 BKN085 21 17 78% 75.87 0.0
07 09:35 SW 13 16.09 Partly Cloudy SCT095 SCT120 21 17 78% 75.84 0.0
07 09:15 SW 7 16.09 Partly Cloudy SCT120 21 17 78% 75.84 0.0
07 08:55 SW 7 16.09 Partly Cloudy SCT060 20 18 88% 75.77 0.0
07 08:35 Calm 16.09 Partly Cloudy SCT060 SCT100 20 18 88% 75.79 0.0
07 08:15 Calm 16.09 Mostly Cloudy SCT075 BKN100 20 18 88% 75.79 0.0
07 07:55 Calm 16.09 Overcast SCT050 OVC110 20 18 88% 75.9 0.0
07 07:35 Calm 16.09 Overcast OVC110 20 18 88% 75.9 0.0
07 07:15 SW 7 16.09 Overcast OVC110 20 18 88% 75.87 0.0
07 06:55 SW 7 16.09 Mostly Cloudy SCT100 BKN120 20 18 88% 75.9 0.0 0.05
07 06:35 SW 15 G 28 11.27 Light Rain SCT016 SCT055 OVC100 20 18 88% 75.84 0.0 0.05
07 06:15 SW 13 16.09 Light Rain SCT047 BKN085 OVC100 20 18 88% 75.92 0.0 0.03
07 05:55 W 15 G 28 16.09 Light Rain SCT043 BKN070 OVC090 20 18 88% 76 0.0
07 05:35 SW 9 16.09 Light Rain SCT046 BKN070 OVC090 21 18 83% 76 0.0
07 05:15 SW 15 16.09 Light Rain SCT070 SCT090 BKN110 21 18 83% 75.97 0.0
07 04:55 SW 7 16.09 Partly Cloudy SCT110 21 18 83% 75.87 0.0
07 04:35 SW 7 16.09 Mostly Cloudy SCT070 BKN120 21 18 83% 75.92 0.0
07 04:15 SW 6 16.09 Mostly Cloudy BKN075 BKN120 21 17 78% 75.92 0.0
07 03:55 Calm 16.09 Partly Cloudy SCT120 21 17 78% 75.95 0.0
07 03:15 S 6 16.09 Partly Cloudy SCT085 21 17 78% 75.9 0.0
07 02:55 S 7 16.09 Partly Cloudy SCT085 21 17 78% 75.9 0.0
07 02:35 S 6 16.09 Partly Cloudy SCT085 21 17 78% 75.92 0.0
07 02:15 S 11 16.09 Partly Cloudy SCT075 SCT100 21 17 78% 75.9 0.0
07 01:55 S 7 16.09 Mostly Cloudy SCT075 BKN100 21 17 78% 75.97 0.0
07 01:35 Calm 16.09 Partly Cloudy SCT075 SCT085 SCT120 21 17 78% 76.05 0.0
07 01:15 Calm 16.09 Mostly Cloudy SCT070 BKN110 21 17 78% 76.1 0.0
07 00:55 NE 6 16.09 Overcast SCT029 OVC080 22 17 73% 76.1 0.0
07 00:35 N 15 16.09 Overcast BKN080 OVC100 22 17 73% 76.15 0.0
07 00:15 SW 9 16.09 Mostly Cloudy SCT080 BKN100 22 17 73% 76.07 0.0
06 23:55 S 11 16.09 Partly Cloudy SCT100 22 17 73% 76.07 0.0
06 23:35 SW 9 16.09 Fair CLR 22 17 73% 76.05 0.0
06 23:15 SW 13 16.09 Thunderstorm in Vicinity CLR 22 17 73% 76.05 0.0
06 22:55 SW 11 16.09 Fair CLR 22 17 73% 76.02 0.0
06 22:35 S 13 16.09 Fair CLR 22 17 73% 75.97 0.0
06 22:15 S 17 G 26 16.09 Fair CLR 22 17 73% 75.97 0.0
06 21:55 S 17 16.09 Fair CLR 23 17 69% 75.97 0.0
06 21:35 S 15 G 30 16.09 Fair CLR 23 16 65% 75.97 0.0
06 21:15 S 15 G 26 16.09 Fair CLR 23 16 65% 76 0.0
06 20:55 S 15 G 30 16.09 Fair CLR 24 16 61% 25 76 0.0
06 20:35 S 17 G 28 16.09 Fair CLR 25 17 61% 26 76.02 0.0
06 20:15 S 15 16.09 Fair CLR 25 17 61% 26 76 0.0
06 19:55 S 13 G 26 16.09 Fair CLR 26 17 58% 27 76 0.0
06 19:35 S 17 G 26 16.09 Fair CLR 26 17 58% 27 75.97 0.0
06 19:15 S 6 16.09 Fair CLR 27 16 51% 27 75.95 0.0
06 18:55 S 6 16.09 Fair CLR 27 16 51% 27 75.95 0.0
06 18:35 Calm 16.09 Fair CLR 28 15 45% 28 75.97 0.0
06 18:15 S 15 16.09 Fair CLR 28 15 45% 28 75.97 0.0
06 17:55 SW 7 16.09 Fair CLR 28 15 45% 28 76 0.0
06 17:35 SW 13 16.09 Fair CLR 28 15 45% 28 76 0.0
06 17:15 SW 13 16.09 Fair CLR 28 15 45% 28 76 0.0
06 16:55 SW 13 G 26 16.09 Fair CLR 28 14 42% 28 76 0.0
06 16:35 SW 13 16.09 Fair CLR 28 14 42% 28 76 0.0
06 16:15 SW 20 G 28 16.09 Fair CLR 28 14 42% 28 76.07 0.0
06 15:55 SW 19 16.09 Fair CLR 28 14 42% 28 76.07 0.0
06 15:35 SW 15 16.09 Fair CLR 27 14 45% 27 76.07 0.0
06 15:15 SW 13 G 28 16.09 Fair CLR 26 14 48% 26 76.07 0.0
06 14:55 SW 15 16.09 Fair CLR 26 14 48% 26 76.12 0.0
06 14:35 SW 19 G 28 16.09 Fair CLR 26 13 45% 26 76.17 0.0
06 14:15 SW 13 16.09 Fair CLR 26 14 48% 26 76.2 0.0
06 13:55 SW 19 G 28 16.09 Fair CLR 26 14 48% 26 76.2 0.0
06 13:35 SW 13 16.09 Fair CLR 25 14 51% 26 76.23 0.0
06 13:15 W 13 16.09 Fair CLR 25 14 51% 26 76.28 0.0
06 12:55 SW 19 16.09 Fair CLR 25 15 54% 26 76.28 0.0
06 12:35 SW 17 G 26 16.09 Fair CLR 24 15 57% 25 76.28 0.0
06 12:15 SW 17 16.09 Fair CLR 25 15 54% 26 76.28 0.0
06 11:55 SW 13 16.09 Fair CLR 24 15 57% 25 76.28 0.0
06 11:35 SW 17 G 30 16.09 Fair CLR 25 15 54% 26 76.28 0.0
06 11:15 SW 15 G 26 16.09 Fair CLR 24 15 57% 25 76.28 0.0
06 10:55 S 13 16.09 Fair CLR 23 15 61% 76.28 0.0
06 10:35 SW 17 16.09 Fair CLR 22 15 65% 76.28 0.0
06 10:15 SW 17 16.09 Fair CLR 22 15 65% 76.28 0.0
06 09:55 SW 17 16.09 Fair CLR 21 15 69% 76.25 0.0
06 09:35 SW 9 16.09 Fair CLR 21 15 69% 76.28 0.0
06 09:15 SW 13 16.09 Fair CLR 20 15 73% 76.25 0.0
06 08:55 SW 11 16.09 Fair CLR 20 16 78% 76.25 0.0
06 08:35 S 7 16.09 Fair CLR 20 16 78% 76.25 0.0
06 08:15 SW 11 16.09 Fair CLR 20 16 78% 76.2 0.0
06 07:55 SW 13 16.09 Fair CLR 19 16 83% 76.2 0.0
06 07:35 SW 11 16.09 Fair CLR 18 16 88% 76.2 0.0
06 07:15 SW 7 16.09 Fair CLR 18 15 83% 76.17 0.0
06 06:55 SW 7 16.09 Fair CLR 17 15 88% 76.2 0.0
06 06:35 SW 7 16.09 Fair CLR 17 15 88% 76.17 0.0
06 06:15 SW 7 16.09 Fair CLR 17 15 88% 76.2 0.0
06 05:55 SW 7 16.09 Fair CLR 17 14 83% 76.17 0.0
06 05:35 SW 9 16.09 Fair CLR 17 14 83% 76.17 0.0
06 05:15 SW 9 16.09 Fair CLR 17 13 77% 76.17 0.0
06 04:55 SW 7 16.09 Fair CLR 17 13 77% 76.2 0.0
06 04:35 SW 9 16.09 Fair CLR 17 13 77% 76.2 0.0
06 04:15 SW 9 16.09 Fair CLR 17 13 77% 76.23 0.0
06 03:55 SW 9 16.09 Fair CLR 17 13 77% 76.2 0.0
06 03:35 SW 9 16.09 Fair CLR 17 13 77% 76.2 0.0
06 03:15 S 7 16.09 Fair CLR 17 13 77% 76.17 0.0
06 02:55 S 7 16.09 Fair CLR 17 13 77% 76.2 0.0
06 02:35 SW 9 16.09 Fair CLR 18 13 73% 76.23 0.0
06 02:15 SW 11 16.09 Fair CLR 17 13 77% 76.23 0.0
06 01:55 SW 9 16.09 Fair CLR 18 12 68% 76.2 0.0
06 01:15 S 13 16.09 Fair CLR 18 12 68% 76.23 0.0
06 00:55 S 9 16.09 Fair CLR 18 12 68% 76.25 0.0
06 00:35 S 13 16.09 Fair CLR 18 12 68% 76.25 0.0
06 00:15 S 9 16.09 Fair CLR 17 12 73% 76.28 0.0
05 23:55 S 7 16.09 Fair CLR 17 12 73% 76.28 0.0
05 23:35 S 7 16.09 Fair CLR 17 12 73% 76.25 0.0
05 23:15 S 7 16.09 Fair CLR 17 12 73% 76.28 0.0
05 22:55 S 9 16.09 Fair CLR 17 12 73% 76.28 0.0
05 22:35 S 7 16.09 Fair CLR 18 12 68% 76.28 0.0
05 22:15 S 9 16.09 Fair CLR 18 12 68% 76.3 0.0
05 21:55 S 11 16.09 Fair CLR 18 12 68% 76.25 0.0
05 21:35 S 11 16.09 Fair CLR 19 12 64% 76.25 0.0
05 21:15 S 11 16.09 Fair CLR 19 12 64% 76.23 0.0
05 20:55 S 13 16.09 Fair CLR 20 12 60% 76.2 0.0
05 20:35 S 15 16.09 Fair CLR 20 12 60% 76.23 0.0
05 20:15 S 13 G 26 16.09 Fair CLR 20 12 60% 76.2 0.0
05 19:55 S 9 16.09 Fair CLR 21 12 57% 76.2 0.0
05 19:35 S 15 16.09 Fair CLR 22 12 53% 76.2 0.0
05 19:15 S 15 G 30 16.09 Fair CLR 22 12 53% 76.17 0.0
Date Time (edt) Wind (kph) Vis. (km) Weather Sky Cond. Air Dwpt Max. Min. Relative Humidity Wind Chill (°C) Heat Index (°C) altimeter (cm) sea level (mb) 1 hr 3 hr 6 hr
6 hour
Temperature (ºC) Pressure Precipitation (cm)